sensor_id;sensor_type;location;lat;lon;timestamp;P1;durP1;ratioP1;P2;durP2;ratioP2
65558;SDS011;52203;51.998;5.140;2023-04-06T00:01:30;17.80;;;8.48;;
65558;SDS011;52203;51.998;5.140;2023-04-06T00:04:32;19.10;;;8.95;;
65558;SDS011;52203;51.998;5.140;2023-04-06T00:07:44;17.20;;;8.50;;
65558;SDS011;52203;51.998;5.140;2023-04-06T00:11:23;19.48;;;9.02;;
65558;SDS011;52203;51.998;5.140;2023-04-06T00:14:20;16.10;;;7.70;;
65558;SDS011;52203;51.998;5.140;2023-04-06T00:21:09;17.08;;;7.63;;
65558;SDS011;52203;51.998;5.140;2023-04-06T00:28:02;21.33;;;8.07;;
65558;SDS011;52203;51.998;5.140;2023-04-06T00:35:16;18.23;;;7.38;;
65558;SDS011;52203;51.998;5.140;2023-04-06T00:45:25;17.25;;;8.15;;
65558;SDS011;52203;51.998;5.140;2023-04-06T01:02:16;16.15;;;7.10;;
65558;SDS011;52203;51.998;5.140;2023-04-06T01:08:48;18.58;;;7.80;;
65558;SDS011;52203;51.998;5.140;2023-04-06T01:15:38;13.90;;;6.50;;
65558;SDS011;52203;51.998;5.140;2023-04-06T01:25:22;16.48;;;7.95;;
65558;SDS011;52203;51.998;5.140;2023-04-06T01:28:49;16.95;;;8.30;;
65558;SDS011;52203;51.998;5.140;2023-04-06T01:50:52;17.23;;;8.60;;
65558;SDS011;52203;51.998;5.140;2023-04-06T02:01:01;16.15;;;8.23;;
65558;SDS011;52203;51.998;5.140;2023-04-06T02:03:33;18.85;;;8.52;;
65558;SDS011;52203;51.998;5.140;2023-04-06T02:06:37;15.55;;;8.25;;
65558;SDS011;52203;51.998;5.140;2023-04-06T02:12:20;16.42;;;7.53;;
65558;SDS011;52203;51.998;5.140;2023-04-06T02:14:57;15.68;;;7.40;;
65558;SDS011;52203;51.998;5.140;2023-04-06T02:17:25;15.63;;;7.95;;
65558;SDS011;52203;51.998;5.140;2023-04-06T02:20:05;18.08;;;8.27;;
65558;SDS011;52203;51.998;5.140;2023-04-06T02:22:46;17.65;;;8.45;;
65558;SDS011;52203;51.998;5.140;2023-04-06T02:28:36;15.23;;;8.40;;
65558;SDS011;52203;51.998;5.140;2023-04-06T02:32:09;18.13;;;7.78;;
65558;SDS011;52203;51.998;5.140;2023-04-06T02:34:34;17.95;;;8.15;;
65558;SDS011;52203;51.998;5.140;2023-04-06T02:37:05;16.15;;;8.10;;
65558;SDS011;52203;51.998;5.140;2023-04-06T02:39:40;18.40;;;8.30;;
65558;SDS011;52203;51.998;5.140;2023-04-06T02:42:06;14.75;;;7.85;;
65558;SDS011;52203;51.998;5.140;2023-04-06T02:44:40;16.40;;;8.60;;
65558;SDS011;52203;51.998;5.140;2023-04-06T02:57:42;15.95;;;7.70;;
65558;SDS011;52203;51.998;5.140;2023-04-06T03:00:14;20.60;;;7.80;;
65558;SDS011;52203;51.998;5.140;2023-04-06T03:13:55;18.88;;;8.70;;
65558;SDS011;52203;51.998;5.140;2023-04-06T03:16:24;22.55;;;8.85;;
65558;SDS011;52203;51.998;5.140;2023-04-06T03:19:22;17.27;;;8.75;;
65558;SDS011;52203;51.998;5.140;2023-04-06T03:21:50;20.23;;;8.98;;
65558;SDS011;52203;51.998;5.140;2023-04-06T03:25:03;20.90;;;9.50;;
65558;SDS011;52203;51.998;5.140;2023-04-06T03:31:40;20.33;;;9.02;;
65558;SDS011;52203;51.998;5.140;2023-04-06T03:48:06;22.60;;;10.27;;
65558;SDS011;52203;51.998;5.140;2023-04-06T03:51:17;21.13;;;10.38;;
65558;SDS011;52203;51.998;5.140;2023-04-06T03:54:22;17.70;;;9.18;;
65558;SDS011;52203;51.998;5.140;2023-04-06T03:57:29;21.33;;;10.05;;
65558;SDS011;52203;51.998;5.140;2023-04-06T04:00:17;23.88;;;10.55;;
65558;SDS011;52203;51.998;5.140;2023-04-06T04:02:43;20.25;;;10.00;;
65558;SDS011;52203;51.998;5.140;2023-04-06T04:05:37;21.30;;;10.45;;
65558;SDS011;52203;51.998;5.140;2023-04-06T04:10:41;19.88;;;9.57;;
65558;SDS011;52203;51.998;5.140;2023-04-06T04:13:51;22.77;;;9.68;;
65558;SDS011;52203;51.998;5.140;2023-04-06T04:16:17;23.20;;;10.80;;
65558;SDS011;52203;51.998;5.140;2023-04-06T04:21:29;21.48;;;10.27;;
65558;SDS011;52203;51.998;5.140;2023-04-06T04:24:00;29.48;;;11.57;;
65558;SDS011;52203;51.998;5.140;2023-04-06T04:26:42;24.05;;;10.63;;
65558;SDS011;52203;51.998;5.140;2023-04-06T04:29:08;25.05;;;11.63;;
65558;SDS011;52203;51.998;5.140;2023-04-06T04:32:00;26.38;;;10.65;;
65558;SDS011;52203;51.998;5.140;2023-04-06T04:37:43;25.40;;;10.88;;
65558;SDS011;52203;51.998;5.140;2023-04-06T04:40:09;22.50;;;10.57;;
65558;SDS011;52203;51.998;5.140;2023-04-06T04:42:52;25.45;;;11.07;;
65558;SDS011;52203;51.998;5.140;2023-04-06T04:45:18;24.50;;;10.70;;
65558;SDS011;52203;51.998;5.140;2023-04-06T04:47:55;19.70;;;10.18;;
65558;SDS011;52203;51.998;5.140;2023-04-06T04:50:23;21.77;;;10.45;;
65558;SDS011;52203;51.998;5.140;2023-04-06T04:53:30;23.63;;;10.82;;
65558;SDS011;52203;51.998;5.140;2023-04-06T04:56:54;20.20;;;10.15;;
65558;SDS011;52203;51.998;5.140;2023-04-06T05:24:27;24.63;;;11.25;;
65558;SDS011;52203;51.998;5.140;2023-04-06T05:26:54;24.67;;;10.65;;
65558;SDS011;52203;51.998;5.140;2023-04-06T05:29:19;25.10;;;12.00;;
65558;SDS011;52203;51.998;5.140;2023-04-06T05:34:28;25.85;;;12.07;;
65558;SDS011;52203;51.998;5.140;2023-04-06T05:36:54;24.60;;;11.73;;
65558;SDS011;52203;51.998;5.140;2023-04-06T05:39:51;24.23;;;11.00;;
65558;SDS011;52203;51.998;5.140;2023-04-06T05:43:13;28.50;;;11.32;;
65558;SDS011;52203;51.998;5.140;2023-04-06T05:46:09;26.83;;;12.75;;
65558;SDS011;52203;51.998;5.140;2023-04-06T05:48:52;26.48;;;12.00;;
65558;SDS011;52203;51.998;5.140;2023-04-06T05:51:21;22.17;;;11.75;;
65558;SDS011;52203;51.998;5.140;2023-04-06T05:54:03;23.40;;;11.85;;
65558;SDS011;52203;51.998;5.140;2023-04-06T05:59:58;23.95;;;11.75;;
65558;SDS011;52203;51.998;5.140;2023-04-06T06:02:39;25.20;;;12.23;;
65558;SDS011;52203;51.998;5.140;2023-04-06T06:05:23;27.33;;;12.00;;
65558;SDS011;52203;51.998;5.140;2023-04-06T06:07:52;27.70;;;12.98;;
65558;SDS011;52203;51.998;5.140;2023-04-06T06:10:32;27.85;;;12.00;;
65558;SDS011;52203;51.998;5.140;2023-04-06T06:13:14;24.88;;;11.80;;
65558;SDS011;52203;51.998;5.140;2023-04-06T06:16:28;26.05;;;12.70;;
65558;SDS011;52203;51.998;5.140;2023-04-06T06:19:20;26.67;;;11.25;;
65558;SDS011;52203;51.998;5.140;2023-04-06T06:21:45;25.92;;;10.80;;
65558;SDS011;52203;51.998;5.140;2023-04-06T06:24:11;24.92;;;11.50;;
65558;SDS011;52203;51.998;5.140;2023-04-06T06:26:36;24.88;;;11.50;;
65558;SDS011;52203;51.998;5.140;2023-04-06T06:29:04;27.80;;;11.95;;
65558;SDS011;52203;51.998;5.140;2023-04-06T06:31:30;26.23;;;11.75;;
65558;SDS011;52203;51.998;5.140;2023-04-06T06:33:56;24.77;;;11.38;;
65558;SDS011;52203;51.998;5.140;2023-04-06T06:36:21;26.52;;;11.40;;
65558;SDS011;52203;51.998;5.140;2023-04-06T06:38:47;29.88;;;11.73;;
65558;SDS011;52203;51.998;5.140;2023-04-06T06:41:12;23.33;;;11.95;;
65558;SDS011;52203;51.998;5.140;2023-04-06T06:43:38;24.48;;;12.40;;
65558;SDS011;52203;51.998;5.140;2023-04-06T06:46:04;25.17;;;12.30;;
65558;SDS011;52203;51.998;5.140;2023-04-06T06:48:31;28.50;;;11.73;;
65558;SDS011;52203;51.998;5.140;2023-04-06T06:50:56;25.02;;;11.82;;
65558;SDS011;52203;51.998;5.140;2023-04-06T06:53:22;26.10;;;11.98;;
65558;SDS011;52203;51.998;5.140;2023-04-06T06:55:48;29.40;;;12.93;;
65558;SDS011;52203;51.998;5.140;2023-04-06T06:58:15;24.08;;;11.23;;
65558;SDS011;52203;51.998;5.140;2023-04-06T07:00:48;24.38;;;12.07;;
65558;SDS011;52203;51.998;5.140;2023-04-06T07:03:38;27.70;;;11.50;;
65558;SDS011;52203;51.998;5.140;2023-04-06T07:06:03;28.20;;;12.85;;
65558;SDS011;52203;51.998;5.140;2023-04-06T07:08:29;28.02;;;12.13;;
65558;SDS011;52203;51.998;5.140;2023-04-06T07:10:55;27.80;;;12.85;;
65558;SDS011;52203;51.998;5.140;2023-04-06T07:13:23;28.63;;;13.07;;
65558;SDS011;52203;51.998;5.140;2023-04-06T07:15:49;29.98;;;12.82;;
65558;SDS011;52203;51.998;5.140;2023-04-06T07:18:15;27.85;;;12.35;;
65558;SDS011;52203;51.998;5.140;2023-04-06T07:20:44;24.02;;;11.95;;
65558;SDS011;52203;51.998;5.140;2023-04-06T07:23:10;25.25;;;12.32;;
65558;SDS011;52203;51.998;5.140;2023-04-06T07:25:35;24.70;;;11.95;;
65558;SDS011;52203;51.998;5.140;2023-04-06T07:28:02;23.73;;;11.77;;
65558;SDS011;52203;51.998;5.140;2023-04-06T07:30:30;27.92;;;13.55;;
65558;SDS011;52203;51.998;5.140;2023-04-06T07:32:55;26.27;;;12.50;;
65558;SDS011;52203;51.998;5.140;2023-04-06T07:35:25;25.88;;;13.10;;
65558;SDS011;52203;51.998;5.140;2023-04-06T07:37:51;25.52;;;12.65;;
65558;SDS011;52203;51.998;5.140;2023-04-06T07:40:20;29.52;;;12.07;;
65558;SDS011;52203;51.998;5.140;2023-04-06T07:42:46;26.52;;;13.05;;
65558;SDS011;52203;51.998;5.140;2023-04-06T07:45:12;28.58;;;12.95;;
65558;SDS011;52203;51.998;5.140;2023-04-06T07:47:38;25.48;;;12.20;;
65558;SDS011;52203;51.998;5.140;2023-04-06T07:50:03;26.95;;;12.52;;
65558;SDS011;52203;51.998;5.140;2023-04-06T07:52:29;32.08;;;14.07;;
65558;SDS011;52203;51.998;5.140;2023-04-06T07:54:56;25.05;;;12.38;;
65558;SDS011;52203;51.998;5.140;2023-04-06T07:57:22;27.38;;;12.98;;
65558;SDS011;52203;51.998;5.140;2023-04-06T07:59:48;30.95;;;13.02;;
65558;SDS011;52203;51.998;5.140;2023-04-06T08:02:13;29.35;;;13.73;;
65558;SDS011;52203;51.998;5.140;2023-04-06T08:04:39;25.52;;;12.52;;
65558;SDS011;52203;51.998;5.140;2023-04-06T08:07:05;29.45;;;13.57;;
65558;SDS011;52203;51.998;5.140;2023-04-06T08:09:31;28.05;;;12.75;;
65558;SDS011;52203;51.998;5.140;2023-04-06T08:11:57;28.52;;;13.63;;
65558;SDS011;52203;51.998;5.140;2023-04-06T08:14:22;24.50;;;13.02;;
65558;SDS011;52203;51.998;5.140;2023-04-06T08:16:48;29.13;;;13.40;;
65558;SDS011;52203;51.998;5.140;2023-04-06T08:19:13;30.20;;;13.85;;
65558;SDS011;52203;51.998;5.140;2023-04-06T08:21:42;27.23;;;13.55;;
65558;SDS011;52203;51.998;5.140;2023-04-06T08:24:08;30.00;;;13.57;;
65558;SDS011;52203;51.998;5.140;2023-04-06T08:26:33;30.40;;;13.25;;
65558;SDS011;52203;51.998;5.140;2023-04-06T08:28:59;28.15;;;13.77;;
65558;SDS011;52203;51.998;5.140;2023-04-06T08:31:24;32.13;;;13.85;;
65558;SDS011;52203;51.998;5.140;2023-04-06T08:33:51;27.65;;;13.73;;
65558;SDS011;52203;51.998;5.140;2023-04-06T08:36:17;27.42;;;12.75;;
65558;SDS011;52203;51.998;5.140;2023-04-06T08:38:47;27.95;;;14.13;;
65558;SDS011;52203;51.998;5.140;2023-04-06T08:41:14;30.83;;;15.43;;
65558;SDS011;52203;51.998;5.140;2023-04-06T08:43:44;29.17;;;14.43;;
65558;SDS011;52203;51.998;5.140;2023-04-06T08:46:12;31.92;;;15.68;;
65558;SDS011;52203;51.998;5.140;2023-04-06T08:48:38;30.42;;;13.52;;
65558;SDS011;52203;51.998;5.140;2023-04-06T08:51:05;31.70;;;15.88;;
65558;SDS011;52203;51.998;5.140;2023-04-06T08:53:31;31.83;;;14.85;;
65558;SDS011;52203;51.998;5.140;2023-04-06T08:55:58;30.63;;;14.27;;
65558;SDS011;52203;51.998;5.140;2023-04-06T08:58:24;30.83;;;15.52;;
65558;SDS011;52203;51.998;5.140;2023-04-06T09:00:53;33.53;;;15.07;;
65558;SDS011;52203;51.998;5.140;2023-04-06T09:03:19;32.92;;;15.32;;
65558;SDS011;52203;51.998;5.140;2023-04-06T09:05:46;31.52;;;15.75;;
65558;SDS011;52203;51.998;5.140;2023-04-06T09:08:12;31.88;;;15.30;;
65558;SDS011;52203;51.998;5.140;2023-04-06T09:10:41;30.42;;;15.63;;
65558;SDS011;52203;51.998;5.140;2023-04-06T09:13:07;33.72;;;15.25;;
65558;SDS011;52203;51.998;5.140;2023-04-06T09:15:33;33.05;;;14.90;;
65558;SDS011;52203;51.998;5.140;2023-04-06T09:17:59;35.88;;;16.17;;
65558;SDS011;52203;51.998;5.140;2023-04-06T09:20:27;39.35;;;17.35;;
65558;SDS011;52203;51.998;5.140;2023-04-06T09:22:53;33.38;;;15.80;;
65558;SDS011;52203;51.998;5.140;2023-04-06T09:25:23;42.10;;;17.35;;
65558;SDS011;52203;51.998;5.140;2023-04-06T09:27:58;36.92;;;15.98;;
65558;SDS011;52203;51.998;5.140;2023-04-06T09:32:52;34.85;;;15.00;;
65558;SDS011;52203;51.998;5.140;2023-04-06T09:35:19;35.15;;;15.63;;
65558;SDS011;52203;51.998;5.140;2023-04-06T09:37:46;35.60;;;15.55;;
65558;SDS011;52203;51.998;5.140;2023-04-06T09:40:15;38.25;;;16.02;;
65558;SDS011;52203;51.998;5.140;2023-04-06T09:42:48;31.38;;;14.90;;
65558;SDS011;52203;51.998;5.140;2023-04-06T09:45:19;35.80;;;14.80;;
65558;SDS011;52203;51.998;5.140;2023-04-06T09:47:46;31.52;;;13.07;;
65558;SDS011;52203;51.998;5.140;2023-04-06T09:50:12;27.48;;;11.77;;
65558;SDS011;52203;51.998;5.140;2023-04-06T09:55:07;25.48;;;12.10;;
65558;SDS011;52203;51.998;5.140;2023-04-06T10:00:22;26.25;;;12.65;;
65558;SDS011;52203;51.998;5.140;2023-04-06T10:05:52;23.58;;;10.50;;
65558;SDS011;52203;51.998;5.140;2023-04-06T10:08:24;23.15;;;10.95;;
65558;SDS011;52203;51.998;5.140;2023-04-06T10:10:53;23.00;;;10.18;;
65558;SDS011;52203;51.998;5.140;2023-04-06T10:13:20;20.83;;;9.82;;
65558;SDS011;52203;51.998;5.140;2023-04-06T10:15:45;23.10;;;9.13;;
65558;SDS011;52203;51.998;5.140;2023-04-06T10:18:12;18.13;;;8.35;;
65558;SDS011;52203;51.998;5.140;2023-04-06T10:23:23;14.02;;;6.78;;
65558;SDS011;52203;51.998;5.140;2023-04-06T10:26:15;12.52;;;6.47;;
65558;SDS011;52203;51.998;5.140;2023-04-06T10:28:43;16.73;;;7.80;;
65558;SDS011;52203;51.998;5.140;2023-04-06T10:31:12;15.80;;;7.28;;
65558;SDS011;52203;51.998;5.140;2023-04-06T10:33:52;19.98;;;8.98;;
65558;SDS011;52203;51.998;5.140;2023-04-06T10:37:10;16.10;;;7.25;;
65558;SDS011;52203;51.998;5.140;2023-04-06T10:39:56;15.68;;;6.97;;
65558;SDS011;52203;51.998;5.140;2023-04-06T10:42:25;17.02;;;7.88;;
65558;SDS011;52203;51.998;5.140;2023-04-06T10:45:06;13.40;;;6.65;;
65558;SDS011;52203;51.998;5.140;2023-04-06T10:47:39;16.17;;;7.30;;
65558;SDS011;52203;51.998;5.140;2023-04-06T10:50:05;12.80;;;7.25;;
65558;SDS011;52203;51.998;5.140;2023-04-06T10:52:40;13.98;;;6.55;;
65558;SDS011;52203;51.998;5.140;2023-04-06T10:55:06;16.23;;;7.90;;
65558;SDS011;52203;51.998;5.140;2023-04-06T10:57:35;13.80;;;6.07;;
65558;SDS011;52203;51.998;5.140;2023-04-06T11:00:03;13.38;;;6.57;;
65558;SDS011;52203;51.998;5.140;2023-04-06T11:02:33;15.32;;;6.90;;
65558;SDS011;52203;51.998;5.140;2023-04-06T11:05:02;12.52;;;6.90;;
65558;SDS011;52203;51.998;5.140;2023-04-06T11:07:28;13.60;;;6.60;;
65558;SDS011;52203;51.998;5.140;2023-04-06T11:09:55;16.15;;;7.20;;
65558;SDS011;52203;51.998;5.140;2023-04-06T11:12:25;14.45;;;6.30;;
65558;SDS011;52203;51.998;5.140;2023-04-06T11:14:59;15.88;;;7.25;;
65558;SDS011;52203;51.998;5.140;2023-04-06T11:17:35;13.48;;;6.55;;
65558;SDS011;52203;51.998;5.140;2023-04-06T11:20:01;14.43;;;6.78;;
65558;SDS011;52203;51.998;5.140;2023-04-06T11:22:32;15.77;;;6.55;;
65558;SDS011;52203;51.998;5.140;2023-04-06T11:25:07;13.40;;;6.97;;
65558;SDS011;52203;51.998;5.140;2023-04-06T11:27:34;14.75;;;6.28;;
65558;SDS011;52203;51.998;5.140;2023-04-06T11:30:01;13.23;;;6.63;;
65558;SDS011;52203;51.998;5.140;2023-04-06T11:32:27;12.90;;;6.88;;
65558;SDS011;52203;51.998;5.140;2023-04-06T11:34:52;15.23;;;6.72;;
65558;SDS011;52203;51.998;5.140;2023-04-06T11:37:18;11.18;;;6.53;;
65558;SDS011;52203;51.998;5.140;2023-04-06T11:39:47;15.20;;;7.75;;
65558;SDS011;52203;51.998;5.140;2023-04-06T11:42:24;14.68;;;6.90;;
65558;SDS011;52203;51.998;5.140;2023-04-06T11:44:53;11.15;;;5.90;;
65558;SDS011;52203;51.998;5.140;2023-04-06T11:47:19;14.35;;;6.78;;
65558;SDS011;52203;51.998;5.140;2023-04-06T11:49:46;14.75;;;7.38;;
65558;SDS011;52203;51.998;5.140;2023-04-06T11:52:16;14.25;;;7.55;;
65558;SDS011;52203;51.998;5.140;2023-04-06T11:54:52;13.77;;;7.50;;
65558;SDS011;52203;51.998;5.140;2023-04-06T11:57:20;13.77;;;8.02;;
65558;SDS011;52203;51.998;5.140;2023-04-06T11:59:48;15.50;;;7.57;;
65558;SDS011;52203;51.998;5.140;2023-04-06T12:02:13;13.23;;;7.25;;
65558;SDS011;52203;51.998;5.140;2023-04-06T12:04:39;17.40;;;8.48;;
65558;SDS011;52203;51.998;5.140;2023-04-06T12:07:04;19.02;;;8.25;;
65558;SDS011;52203;51.998;5.140;2023-04-06T12:09:30;17.10;;;8.32;;
65558;SDS011;52203;51.998;5.140;2023-04-06T12:11:56;15.55;;;7.57;;
65558;SDS011;52203;51.998;5.140;2023-04-06T12:14:21;18.52;;;8.73;;
65558;SDS011;52203;51.998;5.140;2023-04-06T12:16:50;17.65;;;8.90;;
65558;SDS011;52203;51.998;5.140;2023-04-06T12:19:16;15.80;;;8.15;;
65558;SDS011;52203;51.998;5.140;2023-04-06T12:21:41;18.00;;;8.02;;
65558;SDS011;52203;51.998;5.140;2023-04-06T12:24:07;16.65;;;8.82;;
65558;SDS011;52203;51.998;5.140;2023-04-06T12:26:33;16.88;;;8.50;;
65558;SDS011;52203;51.998;5.140;2023-04-06T12:29:02;17.90;;;9.07;;
65558;SDS011;52203;51.998;5.140;2023-04-06T12:31:32;17.98;;;8.25;;
65558;SDS011;52203;51.998;5.140;2023-04-06T12:33:59;18.40;;;9.45;;
65558;SDS011;52203;51.998;5.140;2023-04-06T12:36:24;16.80;;;8.48;;
65558;SDS011;52203;51.998;5.140;2023-04-06T12:38:50;17.02;;;8.55;;
65558;SDS011;52203;51.998;5.140;2023-04-06T12:41:16;16.60;;;8.77;;
65558;SDS011;52203;51.998;5.140;2023-04-06T12:43:42;16.80;;;8.35;;
65558;SDS011;52203;51.998;5.140;2023-04-06T12:46:08;21.15;;;9.70;;
65558;SDS011;52203;51.998;5.140;2023-04-06T12:48:33;18.85;;;9.98;;
65558;SDS011;52203;51.998;5.140;2023-04-06T12:51:01;19.58;;;9.93;;
65558;SDS011;52203;51.998;5.140;2023-04-06T12:53:27;17.50;;;8.48;;
65558;SDS011;52203;51.998;5.140;2023-04-06T12:55:53;20.75;;;9.60;;
65558;SDS011;52203;51.998;5.140;2023-04-06T12:58:20;23.10;;;10.05;;
65558;SDS011;52203;51.998;5.140;2023-04-06T13:00:49;18.48;;;9.77;;
65558;SDS011;52203;51.998;5.140;2023-04-06T13:03:15;17.70;;;9.55;;
65558;SDS011;52203;51.998;5.140;2023-04-06T13:05:48;19.88;;;9.20;;
65558;SDS011;52203;51.998;5.140;2023-04-06T13:08:15;19.73;;;9.55;;
65558;SDS011;52203;51.998;5.140;2023-04-06T13:10:48;19.42;;;9.43;;
65558;SDS011;52203;51.998;5.140;2023-04-06T13:13:23;16.30;;;8.73;;
65558;SDS011;52203;51.998;5.140;2023-04-06T13:15:50;19.05;;;9.95;;
65558;SDS011;52203;51.998;5.140;2023-04-06T13:18:16;17.83;;;9.82;;
65558;SDS011;52203;51.998;5.140;2023-04-06T13:20:41;20.35;;;10.50;;
65558;SDS011;52203;51.998;5.140;2023-04-06T13:23:10;20.33;;;10.50;;
65558;SDS011;52203;51.998;5.140;2023-04-06T13:25:36;20.75;;;9.30;;
65558;SDS011;52203;51.998;5.140;2023-04-06T13:28:05;20.65;;;10.27;;
65558;SDS011;52203;51.998;5.140;2023-04-06T13:30:38;18.58;;;9.77;;
65558;SDS011;52203;51.998;5.140;2023-04-06T13:33:04;19.05;;;9.63;;
65558;SDS011;52203;51.998;5.140;2023-04-06T13:35:31;19.20;;;9.32;;
65558;SDS011;52203;51.998;5.140;2023-04-06T13:37:57;20.02;;;9.57;;
65558;SDS011;52203;51.998;5.140;2023-04-06T13:40:22;20.50;;;11.15;;
65558;SDS011;52203;51.998;5.140;2023-04-06T13:42:48;24.02;;;11.95;;
65558;SDS011;52203;51.998;5.140;2023-04-06T13:45:13;21.55;;;10.90;;
65558;SDS011;52203;51.998;5.140;2023-04-06T13:47:39;22.70;;;11.13;;
65558;SDS011;52203;51.998;5.140;2023-04-06T13:50:05;22.90;;;11.15;;
65558;SDS011;52203;51.998;5.140;2023-04-06T13:52:31;22.00;;;10.77;;
65558;SDS011;52203;51.998;5.140;2023-04-06T13:54:57;23.35;;;10.98;;
65558;SDS011;52203;51.998;5.140;2023-04-06T13:57:22;20.42;;;11.02;;
65558;SDS011;52203;51.998;5.140;2023-04-06T13:59:48;22.33;;;10.50;;
65558;SDS011;52203;51.998;5.140;2023-04-06T14:02:15;25.85;;;10.98;;
65558;SDS011;52203;51.998;5.140;2023-04-06T14:04:41;25.23;;;11.05;;
65558;SDS011;52203;51.998;5.140;2023-04-06T14:07:06;18.85;;;9.57;;
65558;SDS011;52203;51.998;5.140;2023-04-06T14:09:32;20.08;;;9.80;;
65558;SDS011;52203;51.998;5.140;2023-04-06T14:11:58;20.35;;;10.45;;
65558;SDS011;52203;51.998;5.140;2023-04-06T14:14:24;20.85;;;10.32;;
65558;SDS011;52203;51.998;5.140;2023-04-06T14:16:54;18.25;;;8.63;;
65558;SDS011;52203;51.998;5.140;2023-04-06T14:19:20;21.27;;;10.68;;
65558;SDS011;52203;51.998;5.140;2023-04-06T14:21:54;21.23;;;10.77;;
65558;SDS011;52203;51.998;5.140;2023-04-06T14:24:21;19.98;;;10.85;;
65558;SDS011;52203;51.998;5.140;2023-04-06T14:29:45;19.85;;;10.40;;
65558;SDS011;52203;51.998;5.140;2023-04-06T14:32:40;18.98;;;9.63;;
65558;SDS011;52203;51.998;5.140;2023-04-06T14:35:05;20.50;;;10.38;;
65558;SDS011;52203;51.998;5.140;2023-04-06T14:37:31;20.10;;;9.50;;
65558;SDS011;52203;51.998;5.140;2023-04-06T14:39:56;18.65;;;9.93;;
65558;SDS011;52203;51.998;5.140;2023-04-06T14:42:22;17.75;;;9.10;;
65558;SDS011;52203;51.998;5.140;2023-04-06T14:44:47;20.58;;;10.02;;
65558;SDS011;52203;51.998;5.140;2023-04-06T14:47:13;17.30;;;9.52;;
65558;SDS011;52203;51.998;5.140;2023-04-06T14:49:45;19.45;;;9.43;;
65558;SDS011;52203;51.998;5.140;2023-04-06T14:52:11;21.25;;;9.93;;
65558;SDS011;52203;51.998;5.140;2023-04-06T14:54:36;20.05;;;9.93;;
65558;SDS011;52203;51.998;5.140;2023-04-06T14:57:02;18.15;;;9.52;;
65558;SDS011;52203;51.998;5.140;2023-04-06T14:59:28;14.85;;;8.00;;
65558;SDS011;52203;51.998;5.140;2023-04-06T15:01:53;16.73;;;8.75;;
65558;SDS011;52203;51.998;5.140;2023-04-06T15:04:19;17.23;;;8.77;;
65558;SDS011;52203;51.998;5.140;2023-04-06T15:06:45;16.42;;;8.00;;
65558;SDS011;52203;51.998;5.140;2023-04-06T15:09:10;15.75;;;8.13;;
65558;SDS011;52203;51.998;5.140;2023-04-06T15:11:36;16.75;;;8.13;;
65558;SDS011;52203;51.998;5.140;2023-04-06T15:14:01;16.85;;;8.25;;
65558;SDS011;52203;51.998;5.140;2023-04-06T15:16:27;16.52;;;8.85;;
65558;SDS011;52203;51.998;5.140;2023-04-06T15:18:57;14.32;;;7.75;;
65558;SDS011;52203;51.998;5.140;2023-04-06T15:21:23;15.73;;;7.75;;
65558;SDS011;52203;51.998;5.140;2023-04-06T15:23:48;14.38;;;7.90;;
65558;SDS011;52203;51.998;5.140;2023-04-06T15:26:14;17.20;;;9.30;;
65558;SDS011;52203;51.998;5.140;2023-04-06T15:28:40;16.00;;;7.78;;
65558;SDS011;52203;51.998;5.140;2023-04-06T15:31:12;16.42;;;8.95;;
65558;SDS011;52203;51.998;5.140;2023-04-06T15:33:51;16.13;;;9.10;;
65558;SDS011;52203;51.998;5.140;2023-04-06T15:36:26;17.05;;;8.73;;
65558;SDS011;52203;51.998;5.140;2023-04-06T15:38:56;19.33;;;8.93;;
65558;SDS011;52203;51.998;5.140;2023-04-06T15:41:22;18.20;;;8.88;;
65558;SDS011;52203;51.998;5.140;2023-04-06T15:43:48;16.63;;;9.18;;
65558;SDS011;52203;51.998;5.140;2023-04-06T15:46:15;16.90;;;9.50;;
65558;SDS011;52203;51.998;5.140;2023-04-06T15:48:41;19.20;;;9.00;;
65558;SDS011;52203;51.998;5.140;2023-04-06T15:51:07;16.58;;;9.23;;
65558;SDS011;52203;51.998;5.140;2023-04-06T15:53:32;17.35;;;9.80;;
65558;SDS011;52203;51.998;5.140;2023-04-06T15:56:01;18.52;;;9.70;;
65558;SDS011;52203;51.998;5.140;2023-04-06T15:58:27;18.08;;;8.05;;
65558;SDS011;52203;51.998;5.140;2023-04-06T16:00:53;17.98;;;9.35;;
65558;SDS011;52203;51.998;5.140;2023-04-06T16:03:19;16.60;;;9.13;;
65558;SDS011;52203;51.998;5.140;2023-04-06T16:05:45;14.65;;;8.57;;
65558;SDS011;52203;51.998;5.140;2023-04-06T16:08:11;15.70;;;8.77;;
65558;SDS011;52203;51.998;5.140;2023-04-06T16:10:38;15.20;;;8.07;;
65558;SDS011;52203;51.998;5.140;2023-04-06T16:13:05;17.25;;;9.00;;
65558;SDS011;52203;51.998;5.140;2023-04-06T16:15:32;16.17;;;9.27;;
65558;SDS011;52203;51.998;5.140;2023-04-06T16:17:58;18.27;;;9.93;;
65558;SDS011;52203;51.998;5.140;2023-04-06T16:20:23;18.25;;;10.05;;
65558;SDS011;52203;51.998;5.140;2023-04-06T16:22:49;17.00;;;9.00;;
65558;SDS011;52203;51.998;5.140;2023-04-06T16:25:15;17.92;;;10.32;;
65558;SDS011;52203;51.998;5.140;2023-04-06T16:27:41;18.55;;;9.73;;
65558;SDS011;52203;51.998;5.140;2023-04-06T16:30:07;18.52;;;9.85;;
65558;SDS011;52203;51.998;5.140;2023-04-06T16:32:33;15.70;;;8.80;;
65558;SDS011;52203;51.998;5.140;2023-04-06T16:34:59;17.67;;;8.50;;
65558;SDS011;52203;51.998;5.140;2023-04-06T16:37:25;14.57;;;8.63;;
65558;SDS011;52203;51.998;5.140;2023-04-06T16:39:51;16.00;;;9.30;;
65558;SDS011;52203;51.998;5.140;2023-04-06T16:42:17;13.43;;;8.07;;
65558;SDS011;52203;51.998;5.140;2023-04-06T16:44:44;14.60;;;8.73;;
65558;SDS011;52203;51.998;5.140;2023-04-06T16:47:12;16.67;;;8.77;;
65558;SDS011;52203;51.998;5.140;2023-04-06T16:49:38;16.95;;;10.02;;
65558;SDS011;52203;51.998;5.140;2023-04-06T16:52:04;17.25;;;9.48;;
65558;SDS011;52203;51.998;5.140;2023-04-06T16:54:30;15.63;;;8.70;;
65558;SDS011;52203;51.998;5.140;2023-04-06T16:56:58;17.70;;;10.02;;
65558;SDS011;52203;51.998;5.140;2023-04-06T16:59:25;16.08;;;8.90;;
65558;SDS011;52203;51.998;5.140;2023-04-06T17:01:51;14.93;;;8.52;;
65558;SDS011;52203;51.998;5.140;2023-04-06T17:04:17;16.08;;;9.57;;
65558;SDS011;52203;51.998;5.140;2023-04-06T17:06:42;16.38;;;8.90;;
65558;SDS011;52203;51.998;5.140;2023-04-06T17:09:08;17.17;;;9.80;;
65558;SDS011;52203;51.998;5.140;2023-04-06T17:11:33;19.67;;;9.82;;
65558;SDS011;52203;51.998;5.140;2023-04-06T17:13:59;15.85;;;9.23;;
65558;SDS011;52203;51.998;5.140;2023-04-06T17:16:25;16.38;;;8.85;;
65558;SDS011;52203;51.998;5.140;2023-04-06T17:18:50;17.25;;;9.00;;
65558;SDS011;52203;51.998;5.140;2023-04-06T17:21:16;16.08;;;8.90;;
65558;SDS011;52203;51.998;5.140;2023-04-06T17:23:44;19.77;;;10.23;;
65558;SDS011;52203;51.998;5.140;2023-04-06T17:26:10;18.98;;;10.07;;
65558;SDS011;52203;51.998;5.140;2023-04-06T17:28:36;17.30;;;10.23;;
65558;SDS011;52203;51.998;5.140;2023-04-06T17:31:05;16.80;;;9.77;;
65558;SDS011;52203;51.998;5.140;2023-04-06T17:33:33;17.10;;;9.55;;
65558;SDS011;52203;51.998;5.140;2023-04-06T17:35:59;17.30;;;9.70;;
65558;SDS011;52203;51.998;5.140;2023-04-06T17:38:25;15.48;;;9.40;;
65558;SDS011;52203;51.998;5.140;2023-04-06T17:40:50;15.50;;;9.48;;
65558;SDS011;52203;51.998;5.140;2023-04-06T17:43:16;16.65;;;9.32;;
65558;SDS011;52203;51.998;5.140;2023-04-06T17:45:42;17.05;;;9.23;;
65558;SDS011;52203;51.998;5.140;2023-04-06T17:48:07;16.35;;;9.95;;
65558;SDS011;52203;51.998;5.140;2023-04-06T17:50:35;18.45;;;10.35;;